Time;durP1;ratioP1;P1;durP2;ratioP2;P2;SDS_P1;SDS_P2;PMS_P1;PMS_P2;Temp;Humidity;BMP_temperature;BMP_pressure;BME280_temperature;BME280_humidity;BME280_pressure;Samples;Min_cycle;Max_cycle;Signal;HPM_P1;HPM_P2
2024/04/17 00:00:42;;;;;;;0.10;0.10;;;;;;;-139.19;100.00;56970.53;5491747;26;19994;-65
2024/04/17 00:03:08;;;;;;;0.10;0.10;;;;;;;-139.19;100.00;56970.53;5507798;26;20002;-64
2024/04/17 00:05:33;;;;;;;0.30;0.30;;;;;;;-139.19;100.00;56970.53;5500184;26;20021;-64
2024/04/17 00:07:59;;;;;;;0.10;0.10;;;;;;;-139.19;100.00;56970.53;5495696;26;20001;-64
2024/04/17 00:10:24;;;;;;;0.10;0.10;;;;;;;-139.19;100.00;56970.53;5509075;26;19997;-64
2024/04/17 00:12:49;;;;;;;0.00;0.00;;;;;;;-139.19;100.00;56970.53;5500309;26;20002;-64
2024/04/17 00:15:15;;;;;;;0.10;0.10;;;;;;;-139.19;100.00;56970.53;5491635;26;19998;-64
2024/04/17 00:17:40;;;;;;;0.13;0.13;;;;;;;-139.19;100.00;56970.53;5492080;26;20337;-64
2024/04/17 00:20:06;;;;;;;0.10;0.10;;;;;;;-139.19;100.00;56970.53;5491454;26;20005;-64
2024/04/17 00:22:31;;;;;;;0.10;0.10;;;;;;;-139.19;100.00;56970.53;5493463;26;20006;-64
2024/04/17 00:24:56;;;;;;;0.10;0.10;;;;;;;-139.19;100.00;56970.53;5500138;26;19994;-64
2024/04/17 00:27:22;;;;;;;0.20;0.20;;;;;;;-139.19;100.00;56970.53;5527258;26;20387;-64
2024/04/17 00:29:47;;;;;;;0.10;0.10;;;;;;;-139.19;100.00;56970.53;5523457;25;19998;-64
2024/04/17 00:32:12;;;;;;;0.10;0.10;;;;;;;-139.19;100.00;56970.53;5519742;26;20013;-64
2024/04/17 00:34:38;;;;;;;0.10;0.10;;;;;;;-139.19;100.00;56970.53;5517380;26;19993;-64
2024/04/17 00:37:03;;;;;;;0.38;0.38;;;;;;;-139.19;100.00;56970.53;5526090;26;20073;-64
2024/04/17 00:39:29;;;;;;;0.20;0.20;;;;;;;-139.19;100.00;56970.53;5526933;26;19993;-64
2024/04/17 00:41:54;;;;;;;0.10;0.10;;;;;;;-139.19;100.00;56970.53;5524530;26;20005;-64
2024/04/17 00:44:19;;;;;;;0.35;0.35;;;;;;;-139.19;100.00;56970.53;5526450;26;20025;-64
2024/04/17 00:46:45;;;;;;;0.20;0.20;;;;;;;-139.19;100.00;56970.53;5520283;26;20079;-64
2024/04/17 00:49:10;;;;;;;0.20;0.20;;;;;;;-139.19;100.00;56970.53;5491016;26;20013;-64
2024/04/17 00:51:38;;;;;;;0.10;0.10;;;;;;;-139.19;100.00;56970.53;5493624;26;19998;-64
2024/04/17 00:54:04;;;;;;;0.20;0.20;;;;;;;-139.19;100.00;56970.53;5503910;26;20457;-64
2024/04/17 00:56:30;;;;;;;0.10;0.10;;;;;;;-139.19;100.00;56970.53;5491086;26;20018;-64
2024/04/17 00:58:56;;;;;;;0.45;0.45;;;;;;;-139.19;100.00;56970.53;5490903;26;20002;-64
2024/04/17 01:01:22;;;;;;;0.10;0.10;;;;;;;-139.19;100.00;56970.53;5501380;26;20002;-64
2024/04/17 01:03:47;;;;;;;0.10;0.10;;;;;;;-139.19;100.00;56970.53;5526169;26;19994;-64
2024/04/17 01:06:13;;;;;;;0.10;0.10;;;;;;;-139.19;100.00;56970.53;5520662;26;20010;-64
2024/04/17 01:08:38;;;;;;;0.15;0.15;;;;;;;-139.19;100.00;56970.53;5490809;26;20334;-64
2024/04/17 01:11:03;;;;;;;0.00;0.00;;;;;;;-139.19;100.00;56970.53;5490565;26;20017;-64
2024/04/17 01:13:29;;;;;;;0.10;0.10;;;;;;;-139.19;100.00;56970.53;5490638;26;20009;-64
2024/04/17 01:15:58;;;;;;;0.10;0.10;;;;;;;-139.19;100.00;56970.53;5493469;26;20034;-64
2024/04/17 01:18:24;;;;;;;0.10;0.10;;;;;;;-139.19;100.00;56970.53;5490584;26;20010;-64
2024/04/17 01:20:49;;;;;;;0.20;0.20;;;;;;;-139.19;100.00;56970.53;5490556;26;20479;-64
2024/04/17 01:23:15;;;;;;;0.28;0.28;;;;;;;-139.19;100.00;56970.53;5513330;26;19997;-64
2024/04/17 01:25:40;;;;;;;0.25;0.25;;;;;;;-139.19;100.00;56970.53;5507470;26;20077;-64
2024/04/17 01:28:05;;;;;;;0.13;0.13;;;;;;;-139.19;100.00;56970.53;5525811;26;19997;-64
2024/04/17 01:30:31;;;;;;;0.10;0.10;;;;;;;-139.19;100.00;56970.53;5508452;26;20136;-64
2024/04/17 01:32:56;;;;;;;0.10;0.10;;;;;;;-139.19;100.00;56970.53;5492862;26;20013;-64
2024/04/17 01:35:22;;;;;;;0.20;0.20;;;;;;;-139.19;100.00;56970.53;5518114;26;19997;-64
2024/04/17 01:37:47;;;;;;;0.10;0.10;;;;;;;-139.19;100.00;56970.53;5491417;26;20005;-64
2024/04/17 01:40:12;;;;;;;0.10;0.10;;;;;;;-139.19;100.00;56970.53;5513802;26;20015;-64
2024/04/17 01:42:38;;;;;;;0.10;0.10;;;;;;;-139.19;100.00;56970.53;5526433;26;20016;-64
2024/04/17 01:45:03;;;;;;;0.35;0.22;;;;;;;-139.19;100.00;56970.53;5505647;26;20017;-64
2024/04/17 01:47:29;;;;;;;0.10;0.10;;;;;;;-139.19;100.00;56970.53;5490080;26;20017;-64
2024/04/17 01:49:56;;;;;;;0.10;0.10;;;;;;;-139.19;100.00;56970.53;5492181;26;20074;-64
2024/04/17 01:52:22;;;;;;;0.00;0.00;;;;;;;-139.19;100.00;56970.53;5526196;26;19997;-64
2024/04/17 01:54:47;;;;;;;10.80;1.00;;;;;;;-139.19;100.00;56970.53;5526073;26;20013;-64
2024/04/17 01:57:13;;;;;;;0.10;0.10;;;;;;;-139.19;100.00;56970.53;5507377;26;20002;-64
2024/04/17 01:59:38;;;;;;;0.10;0.10;;;;;;;-139.19;100.00;56970.53;5510713;26;20005;-64
2024/04/17 02:02:05;;;;;;;0.00;0.00;;;;;;;-139.19;100.00;56970.53;5525666;26;20004;-64
2024/04/17 02:04:30;;;;;;;0.03;0.03;;;;;;;-139.19;100.00;56970.53;5525090;26;20318;-64
2024/04/17 02:06:56;;;;;;;0.70;0.40;;;;;;;-139.19;100.00;56970.53;5501082;26;20070;-64
2024/04/17 02:09:21;;;;;;;0.10;0.10;;;;;;;-139.19;100.00;56970.53;5489685;26;20074;-64
2024/04/17 02:11:46;;;;;;;0.10;0.10;;;;;;;-139.19;100.00;56970.53;5525739;26;20008;-64
2024/04/17 02:14:12;;;;;;;0.05;0.05;;;;;;;-139.19;100.00;56970.53;5499512;26;20326;-64
2024/04/17 02:16:38;;;;;;;0.00;0.00;;;;;;;-139.19;100.00;56970.53;5489534;26;20329;-64
2024/04/17 02:19:03;;;;;;;0.10;0.10;;;;;;;-139.19;100.00;56970.53;5491916;26;20445;-67
2024/04/17 02:21:28;;;;;;;0.00;0.00;;;;;;;-139.19;100.00;56970.53;5489652;26;19994;-67
2024/04/17 02:23:54;;;;;;;0.10;0.10;;;;;;;-139.19;100.00;56970.53;5517185;26;19997;-67
2024/04/17 02:26:19;;;;;;;0.17;0.17;;;;;;;-139.19;100.00;56970.53;5494350;26;19994;-67
2024/04/17 02:28:44;;;;;;;0.10;0.10;;;;;;;-139.19;100.00;56970.53;5487018;26;19998;-67
2024/04/17 02:31:10;;;;;;;0.10;0.10;;;;;;;-139.19;100.00;56970.53;5505139;26;20025;-67
2024/04/17 02:33:35;;;;;;;0.10;0.10;;;;;;;-139.19;100.00;56970.53;5491385;26;19998;-67
2024/04/17 02:36:00;;;;;;;0.10;0.10;;;;;;;-139.19;100.00;56970.53;5489374;26;20014;-67
2024/04/17 02:38:26;;;;;;;0.05;0.05;;;;;;;-139.19;100.00;56970.53;5489324;26;20329;-67
2024/04/17 02:40:51;;;;;;;0.20;0.20;;;;;;;-139.19;100.00;56970.53;5492452;26;20002;-67
2024/04/17 02:43:16;;;;;;;0.03;0.03;;;;;;;-139.19;100.00;56970.53;5524883;26;20009;-67
2024/04/17 02:45:42;;;;;;;0.15;0.15;;;;;;;-139.19;100.00;56970.53;5495836;26;20006;-67
2024/04/17 02:48:07;;;;;;;0.10;0.10;;;;;;;-139.19;100.00;56970.53;5510575;26;20406;-66
2024/04/17 02:50:37;;;;;;;0.20;0.20;;;;;;;-139.19;100.00;56970.53;5524688;26;20002;-67
2024/04/17 02:53:03;;;;;;;0.10;0.10;;;;;;;-139.19;100.00;56970.53;5525953;26;20008;-67
2024/04/17 02:55:28;;;;;;;0.10;0.10;;;;;;;-139.19;100.00;56970.53;5521463;26;20002;-67
2024/04/17 02:57:54;;;;;;;0.00;0.00;;;;;;;-139.19;100.00;56970.53;5492554;26;19998;-67
2024/04/17 03:00:19;;;;;;;0.10;0.10;;;;;;;-139.19;100.00;56970.53;5526473;26;20017;-67
2024/04/17 03:02:44;;;;;;;0.10;0.10;;;;;;;-139.19;100.00;56970.53;5528077;26;20339;-67
2024/04/17 03:05:09;;;;;;;0.45;0.45;;;;;;;-139.19;100.00;56970.53;5503832;26;20423;-67
2024/04/17 03:07:35;;;;;;;0.05;0.05;;;;;;;-139.19;100.00;56970.53;5492493;26;20392;-67
2024/04/17 03:10:00;;;;;;;0.00;0.00;;;;;;;-139.19;100.00;56970.53;5523507;26;20009;-67
2024/04/17 03:12:26;;;;;;;0.20;0.20;;;;;;;-139.19;100.00;56970.53;5498578;26;19993;-67
2024/04/17 03:14:51;;;;;;;0.10;0.10;;;;;;;-139.19;100.00;56970.53;5528624;26;19997;-67
2024/04/17 03:17:16;;;;;;;0.10;0.10;;;;;;;-139.19;100.00;56970.53;5529136;26;20000;-67
2024/04/17 03:19:42;;;;;;;0.10;0.10;;;;;;;-139.19;100.00;56970.53;5497595;26;20315;-67
2024/04/17 03:22:07;;;;;;;0.40;0.40;;;;;;;-139.19;100.00;56970.53;5492278;26;20322;-67
2024/04/17 03:24:32;;;;;;;0.03;0.03;;;;;;;-139.19;100.00;56970.53;5499185;26;20004;-67
2024/04/17 03:26:57;;;;;;;0.10;0.10;;;;;;;-139.19;100.00;56970.53;5528016;26;20029;-67
2024/04/17 03:29:23;;;;;;;0.10;0.10;;;;;;;-139.19;100.00;56970.53;5527670;26;20325;-67
2024/04/17 03:31:48;;;;;;;0.13;0.13;;;;;;;-139.19;100.00;56970.53;5520671;26;19998;-67
2024/04/17 03:34:13;;;;;;;0.03;0.03;;;;;;;-139.19;100.00;56970.53;5521016;26;20374;-67
2024/04/17 03:36:39;;;;;;;0.00;0.00;;;;;;;-139.19;100.00;56970.53;5527332;26;20005;-67
2024/04/17 03:39:04;;;;;;;0.13;0.13;;;;;;;-139.19;100.00;56970.53;5519608;26;19994;-64
2024/04/17 03:41:29;;;;;;;0.00;0.00;;;;;;;-139.19;100.00;56970.53;5492033;26;20008;-64
2024/04/17 03:43:55;;;;;;;0.10;0.10;;;;;;;-139.19;100.00;56970.53;5514588;26;19993;-64
2024/04/17 03:46:20;;;;;;;0.10;0.10;;;;;;;-139.19;100.00;56970.53;5528161;26;20124;-65
2024/04/17 03:48:45;;;;;;;0.17;0.13;;;;;;;-139.19;100.00;56970.53;5527904;26;20009;-64
2024/04/17 03:51:11;;;;;;;0.00;0.00;;;;;;;-139.19;100.00;56970.53;5506433;26;20006;-64
2024/04/17 03:53:36;;;;;;;0.10;0.10;;;;;;;-139.19;100.00;56970.53;5503425;26;20041;-64
2024/04/17 03:56:01;;;;;;;0.65;0.50;;;;;;;-139.19;100.00;56970.53;5525480;26;20073;-64
2024/04/17 03:58:27;;;;;;;0.08;0.08;;;;;;;-139.19;100.00;56970.53;5526980;26;20009;-64
2024/04/17 04:00:52;;;;;;;0.52;0.20;;;;;;;-139.19;100.00;56970.53;5528467;26;20010;-64
2024/04/17 04:03:17;;;;;;;0.00;0.00;;;;;;;-139.19;100.00;56970.53;5526551;26;19997;-64
2024/04/17 04:05:43;;;;;;;1.65;0.50;;;;;;;-139.19;100.00;56970.53;5527371;26;20012;-64
2024/04/17 04:08:09;;;;;;;0.10;0.10;;;;;;;-139.19;100.00;56970.53;5523418;26;19998;-64
2024/04/17 04:10:34;;;;;;;0.10;0.10;;;;;;;-139.19;100.00;56970.53;5526791;26;20005;-64
2024/04/17 04:13:00;;;;;;;0.05;0.05;;;;;;;-139.19;100.00;56970.53;5525648;26;20012;-64
2024/04/17 04:15:25;;;;;;;0.10;0.10;;;;;;;-139.19;100.00;56970.53;5527423;26;20459;-64
2024/04/17 04:17:50;;;;;;;0.00;0.00;;;;;;;-139.19;100.00;56970.53;5526807;26;20065;-64
2024/04/17 04:20:16;;;;;;;0.20;0.20;;;;;;;-139.19;100.00;56970.53;5524928;26;19998;-64
2024/04/17 04:22:41;;;;;;;0.10;0.10;;;;;;;-139.19;100.00;56970.53;5501109;26;20515;-64
2024/04/17 04:25:06;;;;;;;0.10;0.10;;;;;;;-139.19;100.00;56970.53;5491917;26;20008;-64
2024/04/17 04:27:32;;;;;;;0.05;0.05;;;;;;;-139.19;100.00;56970.53;5491217;26;19994;-64
2024/04/17 04:29:57;;;;;;;0.00;0.00;;;;;;;-139.19;100.00;56970.53;5491274;26;20098;-64
2024/04/17 04:32:22;;;;;;;0.00;0.00;;;;;;;-139.19;100.00;56970.53;5475088;26;19994;-65
2024/04/17 04:34:48;;;;;;;0.43;0.35;;;;;;;-139.19;100.00;56970.53;5524609;26;20025;-65
2024/04/17 04:37:13;;;;;;;0.10;0.10;;;;;;;-139.19;100.00;56970.53;5517730;26;19998;-65
2024/04/17 04:39:39;;;;;;;0.25;0.25;;;;;;;-139.19;100.00;56970.53;5506738;26;20326;-64
2024/04/17 04:42:04;;;;;;;0.10;0.10;;;;;;;-139.19;100.00;56970.53;5518417;26;20005;-75
2024/04/17 04:44:30;;;;;;;0.00;0.00;;;;;;;-139.19;100.00;56970.53;5494921;26;20365;-75
2024/04/17 04:46:56;;;;;;;0.10;0.10;;;;;;;-139.19;100.00;56970.53;5514928;26;19997;-64
2024/04/17 04:49:22;;;;;;;0.10;0.10;;;;;;;-139.19;100.00;56970.53;5527653;26;19990;-64
2024/04/17 04:51:48;;;;;;;0.08;0.08;;;;;;;-139.19;100.00;56970.53;5527491;26;20442;-64
2024/04/17 04:54:14;;;;;;;0.03;0.03;;;;;;;-139.19;100.00;56970.53;5527764;26;20004;-64
2024/04/17 04:56:40;;;;;;;0.00;0.00;;;;;;;-139.19;100.00;56970.53;5527609;26;19997;-64
2024/04/17 04:59:05;;;;;;;0.10;0.10;;;;;;;-139.19;100.00;56970.53;5527321;26;20000;-64
2024/04/17 05:01:31;;;;;;;0.00;0.00;;;;;;;-139.19;100.00;56970.53;5527326;26;20057;-64
2024/04/17 05:03:56;;;;;;;0.10;0.10;;;;;;;-139.19;100.00;56970.53;5527462;26;19996;-64
2024/04/17 05:06:21;;;;;;;0.20;0.20;;;;;;;-139.19;100.00;56970.53;5527209;26;20008;-64
2024/04/17 05:08:47;;;;;;;0.00;0.00;;;;;;;-139.19;100.00;56970.53;5527564;26;20006;-64
2024/04/17 05:11:12;;;;;;;0.10;0.10;;;;;;;-139.19;100.00;56970.53;5527444;26;19997;-64
2024/04/17 05:13:37;;;;;;;0.10;0.10;;;;;;;-139.19;100.00;56970.53;5527486;26;20001;-64
2024/04/17 05:16:03;;;;;;;0.35;0.35;;;;;;;-139.19;100.00;56970.53;5526297;26;19990;-64
2024/04/17 05:18:29;;;;;;;0.10;0.10;;;;;;;-139.19;100.00;56970.53;5527457;26;19993;-64
2024/04/17 05:20:54;;;;;;;0.10;0.10;;;;;;;-139.19;100.00;56970.53;5527344;26;19990;-64
2024/04/17 05:23:20;;;;;;;0.10;0.10;;;;;;;-139.19;100.00;56970.53;5527335;26;20140;-64
2024/04/17 05:25:45;;;;;;;0.30;0.30;;;;;;;-139.19;100.00;56970.53;5527345;26;20337;-64
2024/04/17 05:28:11;;;;;;;0.17;0.17;;;;;;;-139.19;100.00;56970.53;5527274;26;19985;-64
2024/04/17 05:30:36;;;;;;;0.35;0.35;;;;;;;-139.19;100.00;56970.53;5527143;26;20337;-64
2024/04/17 05:33:02;;;;;;;0.15;0.15;;;;;;;-139.19;100.00;56970.53;5527185;26;19993;-64
2024/04/17 05:35:27;;;;;;;0.13;0.13;;;;;;;-139.19;100.00;56970.53;5527130;26;19989;-64
2024/04/17 05:37:52;;;;;;;0.08;0.08;;;;;;;-139.19;100.00;56970.53;5527085;26;19986;-64
2024/04/17 05:40:18;;;;;;;0.05;0.05;;;;;;;-139.19;100.00;56970.53;5527084;26;20338;-64
2024/04/17 05:42:43;;;;;;;0.03;0.03;;;;;;;-139.19;100.00;56970.53;5527034;26;20005;-64
2024/04/17 05:45:09;;;;;;;0.13;0.13;;;;;;;-139.19;100.00;56970.53;5527094;26;20008;-64
2024/04/17 05:47:34;;;;;;;0.90;0.85;;;;;;;-139.19;100.00;56970.53;5526914;26;20003;-64
2024/04/17 05:50:00;;;;;;;0.45;0.45;;;;;;;-139.19;100.00;56970.53;5526852;26;19989;-64
2024/04/17 05:52:25;;;;;;;0.30;0.30;;;;;;;-139.19;100.00;56970.53;5526804;26;19989;-64
2024/04/17 05:54:51;;;;;;;0.93;0.80;;;;;;;-139.19;100.00;56970.53;5526813;26;20059;-64
2024/04/17 05:57:16;;;;;;;0.80;0.80;;;;;;;-139.19;100.00;56970.53;5526595;26;20000;-64
2024/04/17 05:59:41;;;;;;;0.28;0.28;;;;;;;-139.19;100.00;56970.53;5527065;26;19994;-64
2024/04/17 06:02:06;;;;;;;0.45;0.45;;;;;;;-139.19;100.00;56970.53;5527001;26;19994;-64
2024/04/17 06:04:32;;;;;;;0.30;0.30;;;;;;;-139.19;100.00;56970.53;5526900;26;19989;-64
2024/04/17 06:06:57;;;;;;;0.30;0.30;;;;;;;-139.19;100.00;56970.53;5526918;26;19990;-64
2024/04/17 06:09:24;;;;;;;0.32;0.32;;;;;;;-139.19;100.00;56970.53;5526887;26;20317;-64
2024/04/17 06:11:49;;;;;;;0.50;0.50;;;;;;;-139.19;100.00;56970.53;5526467;26;20000;-64
2024/04/17 06:14:15;;;;;;;2.65;1.02;;;;;;;-139.19;100.00;56970.53;5526516;26;19986;-64
2024/04/17 06:16:40;;;;;;;0.20;0.20;;;;;;;-139.19;100.00;56970.53;5526478;26;20392;-64
2024/04/17 06:19:05;;;;;;;0.70;0.70;;;;;;;-139.19;100.00;56970.53;5526418;26;19990;-65
2024/04/17 06:21:31;;;;;;;0.32;0.32;;;;;;;-139.19;100.00;56970.53;5526298;26;19994;-65
2024/04/17 06:23:56;;;;;;;0.43;0.43;;;;;;;-139.19;100.00;56970.53;5526325;26;19998;-65
2024/04/17 06:26:22;;;;;;;0.40;0.40;;;;;;;-139.19;100.00;56970.53;5526868;26;19993;-65
2024/04/17 06:28:47;;;;;;;0.60;0.60;;;;;;;-139.19;100.00;56970.53;5529894;26;20005;-65
2024/04/17 06:31:12;;;;;;;0.45;0.45;;;;;;;-139.19;100.00;56970.53;5529749;26;20001;-65
2024/04/17 06:33:38;;;;;;;0.10;0.10;;;;;;;-139.19;100.00;56970.53;5529829;26;20000;-65
2024/04/17 06:36:03;;;;;;;2.00;1.25;;;;;;;-139.19;100.00;56970.53;5529710;26;19990;-65
2024/04/17 06:38:29;;;;;;;0.68;0.68;;;;;;;-139.19;100.00;56970.53;5529812;26;19993;-64
2024/04/17 06:40:57;;;;;;;0.08;0.08;;;;;;;-139.19;100.00;56970.53;5529861;26;20394;-65
2024/04/17 06:43:23;;;;;;;1.25;0.98;;;;;;;-139.19;100.00;56970.53;5529746;26;20016;-65
2024/04/17 06:45:49;;;;;;;0.00;0.00;;;;;;;-139.19;100.00;56970.53;5529702;26;20001;-65
2024/04/17 06:48:14;;;;;;;0.20;0.20;;;;;;;-139.19;100.00;56970.53;5529656;26;19989;-64
2024/04/17 06:50:40;;;;;;;0.25;0.17;;;;;;;-139.19;100.00;56970.53;5529442;26;19997;-65
2024/04/17 06:53:05;;;;;;;2.83;1.30;;;;;;;-139.19;100.00;56970.53;5529555;26;20018;-65
2024/04/17 06:55:30;;;;;;;0.80;0.63;;;;;;;-139.19;100.00;56970.53;5529540;26;19997;-65
2024/04/17 06:57:56;;;;;;;0.70;0.68;;;;;;;-139.19;100.00;56970.53;5529447;26;20022;-65
2024/04/17 07:00:21;;;;;;;0.38;0.32;;;;;;;-139.19;100.00;56970.53;5529706;26;19989;-65
2024/04/17 07:02:46;;;;;;;0.08;0.08;;;;;;;-139.19;100.00;56970.53;5529736;26;20321;-64
2024/04/17 07:05:12;;;;;;;1.25;1.02;;;;;;;-139.19;100.00;56970.53;5529671;26;20438;-64
2024/04/17 07:07:38;;;;;;;0.30;0.30;;;;;;;-139.19;100.00;56970.53;5529666;26;20382;-65
2024/04/17 07:10:03;;;;;;;1.17;0.47;;;;;;;-139.19;100.00;56970.53;5529642;26;20000;-64
2024/04/17 07:12:29;;;;;;;0.63;0.60;;;;;;;-139.19;100.00;56970.53;5529231;26;19989;-64
2024/04/17 07:14:54;;;;;;;0.10;0.10;;;;;;;-139.19;100.00;56970.53;5529347;26;20019;-64
2024/04/17 07:17:20;;;;;;;0.45;0.40;;;;;;;-139.19;100.00;56970.53;5529234;26;20070;-65
2024/04/17 07:19:45;;;;;;;0.47;0.40;;;;;;;-139.19;100.00;56970.53;5529139;26;19993;-65
2024/04/17 07:22:11;;;;;;;0.10;0.10;;;;;;;-139.19;100.00;56970.53;5529132;26;20457;-64
2024/04/17 07:24:36;;;;;;;0.50;0.50;;;;;;;-139.19;100.00;56970.53;5529117;26;20005;-64
2024/04/17 07:27:02;;;;;;;0.45;0.45;;;;;;;-139.19;100.00;56970.53;5529014;26;20001;-65
2024/04/17 07:29:27;;;;;;;0.30;0.30;;;;;;;-139.19;100.00;56970.53;5528993;26;20001;-65
2024/04/17 07:31:53;;;;;;;0.15;0.15;;;;;;;-139.19;100.00;56970.53;5528832;26;19994;-64
2024/04/17 07:34:18;;;;;;;0.20;0.20;;;;;;;-139.19;100.00;56970.53;5528949;26;20065;-64
2024/04/17 07:36:46;;;;;;;0.10;0.10;;;;;;;-139.19;100.00;56970.53;5528902;26;20008;-64
2024/04/17 07:39:11;;;;;;;2.25;1.38;;;;;;;-139.19;100.00;56970.53;5528061;26;19993;-64
2024/04/17 07:41:37;;;;;;;0.28;0.28;;;;;;;-139.19;100.00;56970.53;5528861;26;20323;-64
2024/04/17 07:44:03;;;;;;;1.20;0.98;;;;;;;-139.19;100.00;56970.53;5528797;26;20360;-64
2024/04/17 07:46:28;;;;;;;0.30;0.30;;;;;;;-139.19;100.00;56970.53;5528788;26;20327;-65
2024/04/17 07:48:54;;;;;;;0.13;0.13;;;;;;;-139.19;100.00;56970.53;5528667;26;20057;-65
2024/04/17 07:51:20;;;;;;;0.15;0.15;;;;;;;-139.19;100.00;56970.53;5528622;26;20390;-65
2024/04/17 07:53:45;;;;;;;0.30;0.30;;;;;;;-139.19;100.00;56970.53;5528998;26;20009;-65
2024/04/17 07:56:10;;;;;;;0.20;0.20;;;;;;;-139.19;100.00;56970.53;5528594;26;20040;-65
2024/04/17 07:58:36;;;;;;;0.85;0.70;;;;;;;-139.19;100.00;56970.53;5528610;26;19994;-65
2024/04/17 08:01:01;;;;;;;0.20;0.20;;;;;;;-139.19;100.00;56970.53;5528912;26;20008;-65
2024/04/17 08:03:26;;;;;;;0.15;0.15;;;;;;;-139.19;100.00;56970.53;5528826;26;19993;-65
2024/04/17 08:05:52;;;;;;;0.28;0.25;;;;;;;-139.19;100.00;56970.53;5528727;26;19997;-65
2024/04/17 08:08:18;;;;;;;0.57;0.45;;;;;;;-139.19;100.00;56970.53;5528801;26;19993;-65
2024/04/17 08:10:43;;;;;;;0.10;0.10;;;;;;;-139.19;100.00;56970.53;5528861;26;20411;-65
2024/04/17 08:13:12;;;;;;;0.65;0.38;;;;;;;-139.19;100.00;56970.53;5528398;26;20004;-65
2024/04/17 08:15:45;;;;;;;0.10;0.10;;;;;;;-139.19;100.00;56970.53;5528373;26;19993;-65
2024/04/17 08:18:11;;;;;;;0.00;0.00;;;;;;;-139.19;100.00;56970.53;5528317;26;20005;-65
2024/04/17 08:20:37;;;;;;;0.00;0.00;;;;;;;-139.19;100.00;56970.53;5528420;26;20042;-65
2024/04/17 08:23:03;;;;;;;0.03;0.03;;;;;;;-139.19;100.00;56970.53;5528200;26;19994;-64
2024/04/17 08:25:28;;;;;;;0.10;0.10;;;;;;;-139.19;100.00;56970.53;5528276;26;20031;-64
2024/04/17 08:27:53;;;;;;;0.25;0.25;;;;;;;-139.19;100.00;56970.53;5528200;26;20337;-65
2024/04/17 08:30:19;;;;;;;0.03;0.03;;;;;;;-139.19;100.00;56970.53;5528128;26;20321;-65
2024/04/17 08:32:45;;;;;;;0.20;0.20;;;;;;;-139.19;100.00;56970.53;5528290;26;19989;-65
2024/04/17 08:35:11;;;;;;;0.10;0.10;;;;;;;-139.19;100.00;56970.53;5528114;26;19997;-65
2024/04/17 08:37:36;;;;;;;0.00;0.00;;;;;;;-139.19;100.00;56970.53;5528063;26;19997;-65
2024/04/17 08:40:03;;;;;;;0.10;0.10;;;;;;;-139.19;100.00;56970.53;5528077;26;19990;-65
2024/04/17 08:42:28;;;;;;;0.10;0.10;;;;;;;-139.19;100.00;56970.53;5528020;26;20005;-65
2024/04/17 08:44:54;;;;;;;0.43;0.43;;;;;;;-139.19;100.00;56970.53;5528062;26;19994;-65
2024/04/17 08:47:22;;;;;;;0.10;0.10;;;;;;;-139.19;100.00;56970.53;5528098;26;20364;-65
2024/04/17 08:49:49;;;;;;;0.10;0.10;;;;;;;-139.19;100.00;56970.53;5526673;26;20333;-65
2024/04/17 08:52:19;;;;;;;1.02;0.60;;;;;;;-139.19;100.00;56970.53;5527702;26;20466;-65
2024/04/17 08:54:46;;;;;;;0.00;0.00;;;;;;;-139.19;100.00;56970.53;5495541;26;19989;-65
2024/04/17 08:57:11;;;;;;;0.10;0.10;;;;;;;-139.19;100.00;56970.53;5527815;26;20436;-65
2024/04/17 08:59:37;;;;;;;0.75;0.38;;;;;;;-139.19;100.00;56970.53;5527534;26;19998;-65
2024/04/17 09:02:02;;;;;;;0.10;0.10;;;;;;;-139.19;100.00;56970.53;5527690;26;19997;-65
2024/04/17 09:04:29;;;;;;;0.10;0.10;;;;;;;-139.19;100.00;56970.53;5527655;26;20007;-65
2024/04/17 09:06:55;;;;;;;0.20;0.20;;;;;;;-139.19;100.00;56970.53;5527726;26;20089;-65
2024/04/17 09:09:22;;;;;;;0.10;0.10;;;;;;;-139.19;100.00;56970.53;5527485;26;19993;-65
2024/04/17 09:11:50;;;;;;;0.32;0.10;;;;;;;-139.19;100.00;56970.53;5527479;26;20429;-65
2024/04/17 09:14:17;;;;;;;0.38;0.38;;;;;;;-139.19;100.00;56970.53;5527504;26;20001;-64
2024/04/17 09:16:42;;;;;;;0.20;0.20;;;;;;;-139.19;100.00;56970.53;5527499;26;20004;-65
2024/04/17 09:19:08;;;;;;;0.10;0.10;;;;;;;-139.19;100.00;56970.53;5527455;26;19994;-65
2024/04/17 09:21:40;;;;;;;1.85;0.80;;;;;;;-139.19;100.00;56970.53;5527388;26;19993;-65
2024/04/17 09:24:07;;;;;;;3.80;0.75;;;;;;;-139.19;100.00;56970.53;5527370;26;20464;-65
2024/04/17 09:26:32;;;;;;;0.10;0.10;;;;;;;-139.19;100.00;56970.53;5527225;26;20425;-65
2024/04/17 09:28:57;;;;;;;0.00;0.00;;;;;;;-139.19;100.00;56970.53;5527344;26;20001;-65
2024/04/17 09:31:23;;;;;;;0.10;0.10;;;;;;;-139.19;100.00;56970.53;5527115;26;19998;-65
2024/04/17 09:33:48;;;;;;;0.00;0.00;;;;;;;-139.19;100.00;56970.53;5527193;26;20005;-64
2024/04/17 09:36:14;;;;;;;3.92;0.60;;;;;;;-139.19;100.00;56970.53;5527177;26;20004;-65
2024/04/17 09:38:40;;;;;;;0.20;0.20;;;;;;;-139.19;100.00;56970.53;5527180;26;20405;-65
2024/04/17 09:41:07;;;;;;;0.10;0.10;;;;;;;-139.19;100.00;56970.53;5527090;26;20461;-65
2024/04/17 09:43:39;;;;;;;0.30;0.30;;;;;;;-139.19;100.00;56970.53;5527036;26;20005;-65
2024/04/17 09:46:06;;;;;;;1.08;0.60;;;;;;;-139.19;100.00;56970.53;5526997;26;20062;-66
2024/04/17 09:48:36;;;;;;;0.00;0.00;;;;;;;-139.19;100.00;56970.53;5526976;26;19993;-65
2024/04/17 09:51:07;;;;;;;0.30;0.30;;;;;;;-139.19;100.00;56970.53;5526906;26;20003;-65
2024/04/17 09:53:37;;;;;;;0.15;0.10;;;;;;;-139.19;100.00;56970.53;5526933;26;20004;-65
2024/04/17 09:56:04;;;;;;;0.00;0.00;;;;;;;-139.19;100.00;56970.53;5526897;26;19993;-65
2024/04/17 09:58:34;;;;;;;0.00;0.00;;;;;;;-139.19;100.00;56970.53;5526642;26;19989;-65
2024/04/17 10:01:06;;;;;;;0.15;0.15;;;;;;;-139.19;100.00;56970.53;5526188;26;19993;-65
2024/04/17 10:03:32;;;;;;;0.63;0.63;;;;;;;-139.19;100.00;56970.53;5526723;26;20000;-65
2024/04/17 10:06:00;;;;;;;0.80;0.43;;;;;;;-139.19;100.00;56970.53;5526593;26;20314;-65
2024/04/17 10:08:30;;;;;;;0.10;0.10;;;;;;;-139.19;100.00;56970.53;5526609;26;19993;-65
2024/04/17 10:10:56;;;;;;;0.00;0.00;;;;;;;-139.19;100.00;56970.53;5526561;26;20001;-65
2024/04/17 10:13:22;;;;;;;2.92;0.47;;;;;;;-139.19;100.00;56970.53;5526470;26;19990;-65
2024/04/17 10:15:48;;;;;;;0.40;0.40;;;;;;;-139.19;100.00;56970.53;5526495;26;20332;-65
2024/04/17 10:18:14;;;;;;;0.10;0.10;;;;;;;-139.19;100.00;56970.53;5526483;26;19994;-65
2024/04/17 10:20:41;;;;;;;0.65;0.38;;;;;;;-139.19;100.00;56970.53;5526388;26;19990;-65
2024/04/17 10:23:07;;;;;;;0.20;0.20;;;;;;;-139.19;100.00;56970.53;5493950;26;19994;-65
2024/04/17 10:25:33;;;;;;;1.92;0.25;;;;;;;-139.19;100.00;56970.53;5526288;26;20353;-65
2024/04/17 10:28:08;;;;;;;0.10;0.10;;;;;;;-139.19;100.00;56970.53;5526281;26;19994;-65
2024/04/17 10:30:35;;;;;;;0.20;0.10;;;;;;;-139.19;100.00;56970.53;5526275;26;20029;-65
2024/04/17 10:33:01;;;;;;;0.00;0.00;;;;;;;-139.19;100.00;56970.53;5526110;26;20057;-65
2024/04/17 10:35:28;;;;;;;1.65;0.63;;;;;;;-139.19;100.00;56970.53;5526134;26;19997;-65
2024/04/17 10:37:53;;;;;;;0.22;0.22;;;;;;;-139.19;100.00;56970.53;5526017;26;20008;-65
2024/04/17 10:40:19;;;;;;;0.10;0.10;;;;;;;-139.19;100.00;56970.53;5526376;26;19989;-65
2024/04/17 10:42:44;;;;;;;0.08;0.08;;;;;;;-139.19;100.00;56970.53;5526008;26;19997;-65
2024/04/17 10:45:10;;;;;;;0.35;0.20;;;;;;;-139.19;100.00;56970.53;5525945;26;20019;-65
2024/04/17 10:47:36;;;;;;;0.00;0.00;;;;;;;-139.19;100.00;56970.53;5525934;26;19993;-65
2024/04/17 10:50:03;;;;;;;0.10;0.10;;;;;;;-139.19;100.00;56970.53;5525817;26;20345;-65
2024/04/17 10:52:30;;;;;;;0.10;0.10;;;;;;;-139.19;100.00;56970.53;5525795;26;20430;-65
2024/04/17 10:54:57;;;;;;;0.10;0.10;;;;;;;-139.19;100.00;56970.53;5525754;26;20024;-65
2024/04/17 10:57:22;;;;;;;0.10;0.10;;;;;;;-139.19;100.00;56970.53;5525618;26;19998;-65
2024/04/17 10:59:49;;;;;;;0.10;0.10;;;;;;;-139.19;100.00;56970.53;5526277;26;20330;-65
2024/04/17 11:02:15;;;;;;;0.00;0.00;;;;;;;-139.19;100.00;56970.53;5525951;26;19997;-65